Time;durP1;ratioP1;P1;durP2;ratioP2;P2;SDS_P1;SDS_P2;PMS_P1;PMS_P2;Temp;Humidity;BMP_temperature;BMP_pressure;BME280_temperature;BME280_humidity;BME280_pressure;Samples;Min_cycle;Max_cycle;Signal;HPM_P1;HPM_P2
2021/09/11 00:02:35;;;;;;;8.80;7.90;;;21.50;99.90;;;;;;10494891;28;20225;-83
2021/09/11 00:07:37;;;;;;;8.70;7.40;;;21.50;99.90;;;;;;10495248;28;20283;-84
2021/09/11 00:12:41;;;;;;;7.53;6.93;;;21.50;99.90;;;;;;10477186;28;20230;-83
2021/09/11 00:17:44;;;;;;;7.63;7.03;;;21.40;99.90;;;;;;10489842;28;20192;-83
2021/09/11 00:22:46;;;;;;;7.67;7.07;;;21.40;99.90;;;;;;10472413;28;20316;-83
2021/09/11 00:27:49;;;;;;;8.47;7.77;;;21.30;99.90;;;;;;10490347;28;20216;-84
2021/09/11 00:32:51;;;;;;;8.80;8.20;;;21.30;99.90;;;;;;10488475;28;20247;-83
2021/09/11 00:37:53;;;;;;;7.57;7.00;;;21.30;99.90;;;;;;10474446;28;20197;-84
2021/09/11 00:42:57;;;;;;;8.40;7.80;;;21.30;99.90;;;;;;10480204;28;20221;-83
2021/09/11 00:47:59;;;;;;;8.23;7.63;;;21.30;99.90;;;;;;10496424;28;20238;-84
2021/09/11 00:53:01;;;;;;;8.93;8.10;;;21.30;99.90;;;;;;10478518;28;20212;-83
2021/09/11 00:58:05;;;;;;;7.87;7.27;;;21.20;99.90;;;;;;10505347;28;20185;-83
2021/09/11 01:03:07;;;;;;;8.60;7.90;;;21.20;99.90;;;;;;10467376;28;20229;-83
2021/09/11 01:08:10;;;;;;;8.33;7.73;;;21.30;99.90;;;;;;10487971;28;20307;-83
2021/09/11 01:13:13;;;;;;;8.87;8.27;;;21.30;99.90;;;;;;10490300;28;20701;-83
2021/09/11 01:18:16;;;;;;;8.40;7.70;;;21.30;99.90;;;;;;10492191;28;20214;-83
2021/09/11 01:23:18;;;;;;;8.27;7.70;;;21.30;99.90;;;;;;10495931;28;20219;-84
2021/09/11 01:28:22;;;;;;;9.50;8.80;;;21.30;99.90;;;;;;10523629;28;20284;-84
2021/09/11 01:33:24;;;;;;;8.00;7.50;;;21.30;99.90;;;;;;10493114;28;20252;-84
2021/09/11 01:38:28;;;;;;;9.27;7.50;;;21.20;99.90;;;;;;10485728;28;20243;-83
2021/09/11 01:43:33;;;;;;;7.83;7.23;;;21.20;99.90;;;;;;10470118;28;20221;-83
2021/09/11 01:48:35;;;;;;;8.60;7.90;;;21.20;99.90;;;;;;10469031;28;20226;-84
2021/09/11 01:53:37;;;;;;;8.57;7.97;;;21.10;99.90;;;;;;10486799;28;20244;-82
2021/09/11 01:58:40;;;;;;;7.97;7.43;;;21.10;99.90;;;;;;10487531;28;20197;-84
2021/09/11 02:03:42;;;;;;;8.33;7.77;;;21.00;99.90;;;;;;10471183;28;20247;-83
2021/09/11 02:08:44;;;;;;;7.80;7.30;;;21.00;99.90;;;;;;10471656;28;20255;-83
2021/09/11 02:13:48;;;;;;;8.47;7.80;;;21.00;99.90;;;;;;10473129;28;20244;-84
2021/09/11 02:18:50;;;;;;;8.30;7.70;;;21.00;99.90;;;;;;10472462;28;20195;-84
2021/09/11 02:23:52;;;;;;;7.93;7.40;;;21.00;99.90;;;;;;10473425;28;20220;-83
2021/09/11 02:28:56;;;;;;;8.73;8.03;;;21.00;99.90;;;;;;10509704;28;20299;-82
2021/09/11 02:33:58;;;;;;;8.03;7.33;;;21.00;99.90;;;;;;10483954;28;20223;-83
2021/09/11 02:39:00;;;;;;;8.17;7.57;;;21.00;99.90;;;;;;10483236;28;20630;-83
2021/09/11 02:44:04;;;;;;;7.80;7.30;;;21.00;99.90;;;;;;10485804;28;20218;-83
2021/09/11 02:49:07;;;;;;;7.17;6.60;;;21.00;99.90;;;;;;10485666;28;20216;-84
2021/09/11 02:54:09;;;;;;;7.27;6.87;;;21.00;99.90;;;;;;10503453;28;20212;-82
2021/09/11 02:59:12;;;;;;;7.37;6.77;;;21.00;99.90;;;;;;10487176;28;20248;-83
2021/09/11 03:04:14;;;;;;;7.63;7.03;;;20.90;99.90;;;;;;10472242;28;20645;-83
2021/09/11 03:09:16;;;;;;;8.27;7.63;;;20.90;99.90;;;;;;10486488;28;20220;-83
2021/09/11 03:14:20;;;;;;;9.27;7.83;;;20.90;99.90;;;;;;10485116;28;20224;-82
2021/09/11 03:19:22;;;;;;;7.87;7.27;;;21.00;99.90;;;;;;10485214;28;20672;-83
2021/09/11 03:24:24;;;;;;;8.10;7.40;;;21.00;99.90;;;;;;10486683;28;20227;-83
2021/09/11 03:29:28;;;;;;;8.17;7.57;;;21.00;99.90;;;;;;10470763;28;20236;-83
2021/09/11 03:34:30;;;;;;;7.50;7.00;;;21.00;99.90;;;;;;10509783;28;20220;-83
2021/09/11 03:39:32;;;;;;;7.80;7.20;;;21.00;99.90;;;;;;10474373;28;20287;-83
2021/09/11 03:44:35;;;;;;;7.07;6.57;;;21.00;99.90;;;;;;10473651;28;21034;-82
2021/09/11 03:49:37;;;;;;;7.70;7.10;;;21.00;99.90;;;;;;10473537;28;20227;-83
2021/09/11 03:54:39;;;;;;;7.27;6.67;;;21.00;99.90;;;;;;10488972;28;20229;-83
2021/09/11 03:59:43;;;;;;;7.60;7.00;;;21.00;99.90;;;;;;10487142;28;20252;-84
2021/09/11 04:04:45;;;;;;;6.97;6.50;;;21.00;99.90;;;;;;10498305;28;20231;-84
2021/09/11 04:09:47;;;;;;;7.63;7.13;;;21.00;99.90;;;;;;10489325;28;20315;-84
2021/09/11 04:14:51;;;;;;;7.00;6.60;;;21.00;99.90;;;;;;10503952;28;20229;-83
2021/09/11 04:19:53;;;;;;;6.87;6.37;;;21.00;99.90;;;;;;10491800;28;20224;-83
2021/09/11 04:24:55;;;;;;;7.20;6.77;;;21.00;99.90;;;;;;10491020;28;20225;-83
2021/09/11 04:29:59;;;;;;;7.63;7.03;;;21.00;99.90;;;;;;10473958;28;20232;-83
2021/09/11 04:35:01;;;;;;;7.63;6.80;;;21.00;99.90;;;;;;10474772;28;20319;-83
2021/09/11 04:40:04;;;;;;;6.77;6.37;;;21.00;99.90;;;;;;10475633;28;20197;-82
2021/09/11 04:45:09;;;;;;;7.23;6.73;;;21.00;99.90;;;;;;10491140;28;20624;-82
2021/09/11 04:50:12;;;;;;;8.00;7.17;;;21.00;99.90;;;;;;10510718;28;20696;-84
2021/09/11 04:55:14;;;;;;;7.33;6.73;;;21.00;99.90;;;;;;10477200;28;20315;-83
2021/09/11 05:00:18;;;;;;;6.80;6.30;;;20.90;99.90;;;;;;10493365;28;20185;-83
2021/09/11 05:05:20;;;;;;;6.50;6.10;;;20.90;99.90;;;;;;10493159;28;20205;-84
2021/09/11 05:10:22;;;;;;;6.10;5.70;;;20.80;99.90;;;;;;10495711;28;20220;-83
2021/09/11 05:15:26;;;;;;;7.03;6.53;;;20.70;99.90;;;;;;10495337;28;20220;-83
2021/09/11 05:20:28;;;;;;;5.97;5.57;;;20.70;99.90;;;;;;10494689;28;20733;-83
2021/09/11 05:25:30;;;;;;;6.37;5.97;;;20.60;99.90;;;;;;10495920;28;20268;-83
2021/09/11 05:30:34;;;;;;;6.30;5.80;;;20.60;99.90;;;;;;10478687;28;20218;-82
2021/09/11 05:35:36;;;;;;;6.47;5.87;;;20.60;99.90;;;;;;10493422;28;20283;-83
2021/09/11 05:40:38;;;;;;;6.03;5.63;;;20.60;99.90;;;;;;10471172;28;20680;-83
2021/09/11 05:45:41;;;;;;;5.90;5.50;;;20.50;99.90;;;;;;10501641;28;20196;-83
2021/09/11 05:50:44;;;;;;;6.30;5.80;;;20.50;99.90;;;;;;10482971;28;20876;-83
2021/09/11 05:55:46;;;;;;;6.20;5.80;;;20.50;99.90;;;;;;10482574;28;20197;-82
2021/09/11 06:00:49;;;;;;;6.10;5.70;;;20.40;99.90;;;;;;10483231;28;20219;-83
2021/09/11 06:05:52;;;;;;;6.63;6.13;;;20.40;99.90;;;;;;10483073;28;20258;-83
2021/09/11 06:10:54;;;;;;;5.97;5.43;;;20.40;99.90;;;;;;10483104;28;20220;-83
2021/09/11 06:15:57;;;;;;;5.90;5.43;;;20.40;99.90;;;;;;10465486;28;20227;-83
2021/09/11 06:20:59;;;;;;;6.10;5.70;;;20.40;99.90;;;;;;10465254;28;20221;-84
2021/09/11 06:26:02;;;;;;;5.67;5.23;;;20.50;99.90;;;;;;10479587;28;20200;-84
2021/09/11 06:31:05;;;;;;;6.73;5.47;;;20.50;99.90;;;;;;10498653;28;20224;-84
2021/09/11 06:36:11;;;;;;;6.13;5.73;;;20.50;99.90;;;;;;10476376;28;20981;-84
2021/09/11 06:41:13;;;;;;;5.10;4.60;;;20.50;99.90;;;;;;10465581;28;20243;-85
2021/09/11 06:46:16;;;;;;;5.70;5.30;;;20.60;99.90;;;;;;10465854;28;20291;-85
2021/09/11 06:51:19;;;;;;;5.70;5.30;;;20.70;99.90;;;;;;10501652;28;20748;-84
2021/09/11 06:56:21;;;;;;;5.77;5.37;;;20.80;99.90;;;;;;10461829;28;20641;-84
2021/09/11 07:01:24;;;;;;;5.23;4.83;;;21.00;99.90;;;;;;10497087;28;20204;-84
2021/09/11 07:06:26;;;;;;;4.83;4.53;;;21.10;99.90;;;;;;10494562;28;20257;-84
2021/09/11 07:11:28;;;;;;;5.07;4.37;;;21.20;99.90;;;;;;10476303;28;20232;-83
2021/09/11 07:16:32;;;;;;;4.13;3.83;;;21.30;99.90;;;;;;10474946;28;20207;-83
2021/09/11 07:21:34;;;;;;;5.37;4.10;;;21.40;99.90;;;;;;10450793;28;20217;-84
2021/09/11 07:26:36;;;;;;;4.30;4.00;;;21.50;99.90;;;;;;10436822;28;20209;-83
2021/09/11 07:31:40;;;;;;;4.03;3.83;;;21.60;99.90;;;;;;10419890;28;20264;-84
2021/09/11 07:36:42;;;;;;;4.10;3.90;;;21.60;99.90;;;;;;10436641;28;20197;-83
2021/09/11 07:41:44;;;;;;;3.50;3.30;;;21.80;99.90;;;;;;10421171;28;20221;-84
2021/09/11 07:46:47;;;;;;;4.20;3.90;;;21.90;99.90;;;;;;10420515;28;20224;-85
2021/09/11 07:51:50;;;;;;;3.70;3.50;;;22.10;99.90;;;;;;10437586;28;20419;-84
2021/09/11 07:56:52;;;;;;;3.10;2.90;;;22.30;99.90;;;;;;10436759;28;20217;-85
2021/09/11 08:01:56;;;;;;;3.90;3.60;;;22.40;99.90;;;;;;10453794;28;20221;-85
2021/09/11 08:06:58;;;;;;;3.83;3.50;;;22.50;99.90;;;;;;10420445;28;20750;-85
2021/09/11 08:12:00;;;;;;;3.73;3.53;;;22.60;99.90;;;;;;10436231;28;20320;-84
2021/09/11 08:17:03;;;;;;;4.27;3.70;;;22.70;99.90;;;;;;10438594;28;20638;-85
2021/09/11 08:22:06;;;;;;;5.30;3.90;;;22.80;99.90;;;;;;10461758;28;20219;-85
2021/09/11 08:27:08;;;;;;;3.73;3.43;;;22.80;99.90;;;;;;10444038;28;20213;-85
2021/09/11 08:32:11;;;;;;;4.17;3.90;;;22.80;99.90;;;;;;10459809;28;20316;-85
2021/09/11 08:37:13;;;;;;;4.30;4.00;;;22.90;99.90;;;;;;10429055;28;20201;-85
2021/09/11 08:42:19;;;;;;;3.63;3.33;;;23.00;99.90;;;;;;10442815;28;20217;-85
2021/09/11 08:47:22;;;;;;;4.60;4.30;;;23.20;99.90;;;;;;10428507;28;20208;-84
2021/09/11 08:52:24;;;;;;;4.20;3.90;;;23.30;99.90;;;;;;10441603;28;20731;-84
2021/09/11 08:57:30;;;;;;;4.47;4.07;;;23.40;99.90;;;;;;10442085;28;20685;-84
2021/09/11 09:02:36;;;;;;;3.37;3.10;;;23.50;99.90;;;;;;10424892;28;20701;-83
2021/09/11 09:07:39;;;;;;;4.23;4.00;;;23.40;99.90;;;;;;10425165;28;20340;-85
2021/09/11 09:12:43;;;;;;;4.20;3.90;;;23.20;99.90;;;;;;10424036;28;20233;-84
2021/09/11 09:17:49;;;;;;;4.10;3.73;;;23.20;99.90;;;;;;10440761;28;20189;-85
2021/09/11 09:23:08;;;;;;;5.53;3.57;;;23.30;99.90;;;;;;10441394;28;20224;-86
2021/09/11 09:28:12;;;;;;;3.90;3.40;;;23.50;99.90;;;;;;10442624;28;20216;-85
2021/09/11 09:33:20;;;;;;;3.77;3.47;;;23.60;99.90;;;;;;10425007;28;20237;-85
2021/09/11 09:38:23;;;;;;;4.10;3.90;;;23.70;99.90;;;;;;10424519;28;20211;-85
2021/09/11 09:43:37;;;;;;;4.80;4.40;;;23.70;99.90;;;;;;10459387;28;20209;-85
2021/09/11 09:48:42;;;;;;;4.27;3.97;;;23.70;99.90;;;;;;10459887;28;20189;-84
2021/09/11 09:53:47;;;;;;;3.80;3.60;;;23.70;99.90;;;;;;10440781;28;20217;-85
2021/09/11 09:58:51;;;;;;;5.30;4.90;;;23.70;99.90;;;;;;10425067;28;20201;-84
2021/09/11 10:03:54;;;;;;;4.70;4.30;;;23.80;99.90;;;;;;10424949;28;20225;-85
2021/09/11 10:08:59;;;;;;;4.47;4.27;;;23.80;99.90;;;;;;10441470;28;20280;-85
2021/09/11 10:14:04;;;;;;;4.93;4.43;;;23.80;99.90;;;;;;10441187;28;20569;-84
2021/09/11 10:19:17;;;;;;;4.27;4.00;;;23.90;99.90;;;;;;10459196;28;20609;-85
2021/09/11 10:24:37;;;;;;;5.33;4.30;;;23.80;99.90;;;;;;10457714;28;20264;-84
2021/09/11 10:29:54;;;;;;;3.90;3.70;;;23.70;99.90;;;;;;10496132;28;20216;-85
2021/09/11 10:35:02;;;;;;;6.17;4.30;;;23.60;99.90;;;;;;10460731;28;20232;-85
2021/09/11 10:40:32;;;;;;;6.13;4.50;;;23.60;99.90;;;;;;10479541;28;20632;-84
2021/09/11 10:45:56;;;;;;;3.77;3.57;;;23.60;99.90;;;;;;10460334;28;20224;-83
2021/09/11 10:51:10;;;;;;;3.80;3.60;;;23.60;99.90;;;;;;10461571;28;20228;-84
2021/09/11 10:56:26;;;;;;;4.33;3.90;;;23.50;99.90;;;;;;10477837;28;20731;-85
2021/09/11 11:01:55;;;;;;;3.93;3.73;;;23.50;99.90;;;;;;10476677;28;20320;-84
2021/09/11 11:07:00;;;;;;;4.43;4.13;;;23.60;99.90;;;;;;10478428;28;20211;-85
2021/09/11 11:12:03;;;;;;;4.40;4.00;;;23.60;99.90;;;;;;10478349;28;20227;-85
2021/09/11 11:17:05;;;;;;;4.47;4.17;;;23.40;99.90;;;;;;10477221;28;20729;-84
2021/09/11 11:22:10;;;;;;;4.43;4.13;;;23.30;99.90;;;;;;10480134;28;20212;-84
2021/09/11 11:27:14;;;;;;;6.07;4.50;;;23.20;99.90;;;;;;10460934;28;20213;-84
2021/09/11 11:32:20;;;;;;;9.60;8.70;;;23.10;99.90;;;;;;10461061;28;20251;-83
2021/09/11 11:37:23;;;;;;;11.07;10.07;;;22.80;99.90;;;;;;10477560;28;20556;-85
2021/09/11 11:42:27;;;;;;;10.63;9.90;;;22.30;99.90;;;;;;10463669;28;20213;-84
2021/09/11 11:47:35;;;;;;;10.60;9.87;;;21.90;99.90;;;;;;10481627;28;20284;-84
2021/09/11 11:52:39;;;;;;;9.17;8.57;;;21.30;99.90;;;;;;10466013;28;20228;-85
2021/09/11 11:57:41;;;;;;;9.10;8.60;;;20.90;99.90;;;;;;10488410;28;20568;-84
2021/09/11 12:02:47;;;;;;;9.83;9.10;;;20.70;99.90;;;;;;10481946;28;20222;-84
2021/09/11 12:07:55;;;;;;;7.20;6.50;;;20.50;99.90;;;;;;10503147;28;20184;-86
2021/09/11 12:13:04;;;;;;;9.97;9.27;;;20.60;99.90;;;;;;10486468;28;20228;-85
2021/09/11 12:18:10;;;;;;;6.87;6.33;;;20.70;99.90;;;;;;10466111;28;20215;-84
2021/09/11 12:23:16;;;;;;;5.80;5.40;;;20.80;99.90;;;;;;10468637;28;20212;-85
2021/09/11 12:28:44;;;;;;;5.60;5.20;;;21.00;99.90;;;;;;10483999;28;20269;-84
2021/09/11 12:33:48;;;;;;;4.97;4.77;;;21.10;99.90;;;;;;10468840;28;20327;-84
2021/09/11 12:38:52;;;;;;;5.70;5.40;;;21.30;99.90;;;;;;10466702;28;20235;-85
2021/09/11 12:43:55;;;;;;;5.80;5.50;;;21.50;99.90;;;;;;10502284;28;20213;-85
2021/09/11 12:49:08;;;;;;;4.20;4.00;;;21.80;99.90;;;;;;10465127;28;20230;-84
2021/09/11 12:54:11;;;;;;;5.70;5.40;;;21.90;99.90;;;;;;10458388;28;20228;-84
2021/09/11 12:59:13;;;;;;;5.33;5.03;;;22.00;99.90;;;;;;10465516;28;20205;-84
2021/09/11 13:04:17;;;;;;;6.00;5.57;;;22.20;99.90;;;;;;10464277;28;20216;-84
2021/09/11 13:09:20;;;;;;;6.70;6.27;;;22.40;99.90;;;;;;10481530;28;20621;-85
2021/09/11 13:14:23;;;;;;;5.80;5.40;;;22.50;99.90;;;;;;10481759;28;20216;-84
2021/09/11 13:19:28;;;;;;;6.03;5.40;;;22.60;99.90;;;;;;10464529;28;20203;-84
2021/09/11 13:24:31;;;;;;;5.47;5.17;;;22.60;99.90;;;;;;10465776;28;20244;-84
2021/09/11 13:29:33;;;;;;;5.13;4.73;;;22.70;99.90;;;;;;10465721;28;20509;-85
2021/09/11 13:34:35;;;;;;;6.00;5.60;;;22.80;99.90;;;;;;10499162;28;20223;-85
2021/09/11 13:39:39;;;;;;;4.87;4.57;;;22.70;99.90;;;;;;10500042;28;20376;-84
2021/09/11 13:44:41;;;;;;;5.50;5.20;;;22.60;99.90;;;;;;10479880;28;20592;-85
2021/09/11 13:49:43;;;;;;;4.87;4.57;;;22.50;99.90;;;;;;10461582;28;20724;-84
2021/09/11 13:54:46;;;;;;;4.77;4.37;;;22.30;99.90;;;;;;10463967;28;20228;-85
2021/09/11 13:59:50;;;;;;;4.90;4.60;;;22.20;99.90;;;;;;10500043;28;20271;-83
2021/09/11 14:04:55;;;;;;;4.23;4.03;;;22.10;99.90;;;;;;10479470;28;20227;-84
2021/09/11 14:09:58;;;;;;;5.00;4.70;;;22.00;99.90;;;;;;10479324;28;20208;-85
2021/09/11 14:15:01;;;;;;;4.70;4.40;;;22.00;99.90;;;;;;10464733;28;20324;-84
2021/09/11 14:20:03;;;;;;;5.93;5.53;;;22.10;99.90;;;;;;10495020;28;20192;-84
2021/09/11 14:25:08;;;;;;;5.23;4.83;;;22.20;99.90;;;;;;10476249;28;20270;-84
2021/09/11 14:30:12;;;;;;;5.80;5.33;;;22.30;99.90;;;;;;10462341;28;20220;-84
2021/09/11 14:35:15;;;;;;;6.20;5.80;;;22.30;99.90;;;;;;10479419;28;20303;-85
2021/09/11 14:40:18;;;;;;;6.30;5.90;;;22.30;99.90;;;;;;10480091;28;20285;-84
2021/09/11 14:45:20;;;;;;;5.80;5.40;;;22.30;99.90;;;;;;10461748;28;20244;-85
2021/09/11 14:50:23;;;;;;;4.40;4.10;;;22.30;99.90;;;;;;10480258;28;20558;-84
2021/09/11 14:55:26;;;;;;;5.07;4.67;;;22.30;99.90;;;;;;10479343;28;20239;-84
2021/09/11 15:00:29;;;;;;;5.07;4.77;;;22.30;99.90;;;;;;10479979;28;20220;-84
2021/09/11 15:05:34;;;;;;;4.73;4.43;;;22.30;99.90;;;;;;10478824;28;20570;-84
2021/09/11 15:10:38;;;;;;;6.17;5.67;;;22.30;99.90;;;;;;10480820;28;20680;-83
2021/09/11 15:15:41;;;;;;;6.23;5.83;;;22.30;99.90;;;;;;10477841;28;20279;-85
2021/09/11 15:20:43;;;;;;;8.57;7.70;;;22.20;99.90;;;;;;10479710;28;20208;-84
2021/09/11 15:25:47;;;;;;;7.97;7.27;;;22.10;99.90;;;;;;10459968;28;20208;-84
2021/09/11 15:30:50;;;;;;;6.67;6.17;;;22.00;99.90;;;;;;10477804;28;20614;-86
2021/09/11 15:35:52;;;;;;;6.70;6.20;;;22.00;99.90;;;;;;10461936;28;20208;-85
2021/09/11 15:40:57;;;;;;;6.60;6.10;;;22.00;99.90;;;;;;10477803;28;20223;-85
2021/09/11 15:45:59;;;;;;;5.67;5.20;;;21.90;99.90;;;;;;10461248;28;20254;-84
2021/09/11 15:51:01;;;;;;;5.20;4.80;;;21.80;99.90;;;;;;10478616;28;20260;-85
2021/09/11 15:56:05;;;;;;;5.00;4.60;;;21.80;99.90;;;;;;10478647;28;20652;-85
2021/09/11 16:01:07;;;;;;;9.03;8.23;;;21.70;99.90;;;;;;10461924;28;20212;-85
2021/09/11 16:06:10;;;;;;;5.20;4.90;;;21.70;99.90;;;;;;10462177;28;20292;-86
2021/09/11 16:11:14;;;;;;;5.00;4.70;;;21.60;99.90;;;;;;10461104;28;20704;-85
2021/09/11 16:16:16;;;;;;;6.10;5.60;;;21.60;99.90;;;;;;10478052;28;20197;-85
2021/09/11 16:21:18;;;;;;;6.00;5.50;;;21.60;99.90;;;;;;10460217;28;20244;-86
2021/09/11 16:26:22;;;;;;;4.93;4.53;;;21.60;99.90;;;;;;10476717;28;20613;-84
2021/09/11 16:31:24;;;;;;;6.30;5.80;;;21.50;99.90;;;;;;10475577;28;20680;-85
2021/09/11 16:36:26;;;;;;;7.17;6.47;;;21.50;99.90;;;;;;10475900;28;20204;-84
2021/09/11 16:41:30;;;;;;;6.00;5.40;;;21.50;99.90;;;;;;10465421;28;20581;-83
2021/09/11 16:46:32;;;;;;;5.23;4.67;;;21.50;99.90;;;;;;10479911;28;20270;-84
2021/09/11 16:51:34;;;;;;;5.93;5.53;;;21.50;99.90;;;;;;10482653;28;20282;-83
2021/09/11 16:56:37;;;;;;;5.80;5.30;;;21.50;99.90;;;;;;10500112;28;20185;-84
2021/09/11 17:01:40;;;;;;;4.80;4.40;;;21.50;99.90;;;;;;10483041;28;20287;-83
2021/09/11 17:06:42;;;;;;;4.60;4.20;;;21.50;99.90;;;;;;10483439;28;20546;-84
2021/09/11 17:11:46;;;;;;;3.83;3.53;;;21.50;99.90;;;;;;10465950;28;20243;-83
2021/09/11 17:16:48;;;;;;;4.40;4.10;;;21.40;99.90;;;;;;10464694;28;20572;-84
2021/09/11 17:21:51;;;;;;;5.70;4.13;;;21.30;99.90;;;;;;10481746;28;20220;-84
2021/09/11 17:26:54;;;;;;;3.87;3.57;;;21.30;99.90;;;;;;10465237;28;20213;-85
2021/09/11 17:31:56;;;;;;;3.80;3.43;;;21.20;99.90;;;;;;10482409;28;20231;-84
2021/09/11 17:36:59;;;;;;;3.80;3.60;;;21.20;99.90;;;;;;10481765;28;20200;-84
2021/09/11 17:42:03;;;;;;;4.13;3.93;;;21.00;99.90;;;;;;10481891;28;20240;-85
2021/09/11 17:47:05;;;;;;;5.53;5.13;;;20.90;99.90;;;;;;10481412;28;20568;-83
2021/09/11 17:52:07;;;;;;;4.47;4.17;;;20.80;99.90;;;;;;10498443;28;20216;-83
2021/09/11 17:57:12;;;;;;;3.83;3.50;;;20.70;99.90;;;;;;10499900;28;20189;-84
2021/09/11 18:02:14;;;;;;;4.80;3.83;;;20.70;99.90;;;;;;10479126;28;20223;-85
2021/09/11 18:07:16;;;;;;;4.07;3.77;;;20.50;99.90;;;;;;10498143;28;20230;-84
2021/09/11 18:12:20;;;;;;;4.60;4.20;;;20.50;99.90;;;;;;10481370;28;20252;-83
2021/09/11 18:17:22;;;;;;;4.23;4.00;;;20.40;99.90;;;;;;10464254;28;20204;-83
2021/09/11 18:22:28;;;;;;;4.37;3.70;;;20.40;99.90;;;;;;10462273;28;20218;-83
2021/09/11 18:27:31;;;;;;;4.43;4.10;;;20.30;99.90;;;;;;10479989;28;20208;-84
2021/09/11 18:32:33;;;;;;;4.07;3.70;;;20.30;99.90;;;;;;10479068;28;20324;-83
2021/09/11 18:37:36;;;;;;;4.30;4.00;;;20.20;99.90;;;;;;10480082;28;20219;-84
2021/09/11 18:42:39;;;;;;;3.97;3.70;;;20.10;99.90;;;;;;10479902;28;20212;-84
2021/09/11 18:47:41;;;;;;;4.73;4.43;;;20.00;99.90;;;;;;10463693;28;20200;-85
2021/09/11 18:52:44;;;;;;;4.50;4.20;;;19.90;99.90;;;;;;10462399;28;20229;-83
2021/09/11 18:57:47;;;;;;;5.87;5.37;;;19.90;99.90;;;;;;10497502;28;20199;-85
2021/09/11 19:02:49;;;;;;;4.00;3.80;;;19.90;99.90;;;;;;10461289;28;20216;-83
2021/09/11 19:07:52;;;;;;;4.60;4.30;;;19.90;99.90;;;;;;10462410;28;20204;-84
2021/09/11 19:12:57;;;;;;;4.10;3.80;;;19.80;99.90;;;;;;10480783;28;20278;-83
2021/09/11 19:18:00;;;;;;;4.57;4.27;;;19.80;99.90;;;;;;10462960;28;20243;-84
2021/09/11 19:23:04;;;;;;;5.13;4.83;;;19.70;99.90;;;;;;10462137;28;20224;-84
2021/09/11 19:28:08;;;;;;;5.00;4.50;;;19.70;99.90;;;;;;10477560;28;20680;-83
2021/09/11 19:33:10;;;;;;;4.03;3.83;;;19.60;99.90;;;;;;10447225;28;20231;-84
2021/09/11 19:38:12;;;;;;;5.03;4.53;;;19.60;99.90;;;;;;10457504;28;20676;-84
2021/09/11 19:43:16;;;;;;;5.10;4.70;;;19.60;99.90;;;;;;10473007;28;20212;-84
2021/09/11 19:48:18;;;;;;;5.50;5.00;;;19.60;99.90;;;;;;10455221;28;20208;-82
2021/09/11 19:53:20;;;;;;;6.07;5.57;;;19.50;99.90;;;;;;10485048;28;20308;-83
2021/09/11 19:58:24;;;;;;;5.70;5.20;;;19.50;99.90;;;;;;10476243;28;20200;-83
2021/09/11 20:03:27;;;;;;;6.33;5.83;;;19.50;99.90;;;;;;10475280;28;20593;-83
2021/09/11 20:08:30;;;;;;;5.63;5.23;;;19.50;99.90;;;;;;10476979;28;20201;-83
2021/09/11 20:13:35;;;;;;;6.43;5.97;;;19.60;99.90;;;;;;10480249;28;20417;-83
2021/09/11 20:18:38;;;;;;;6.53;5.93;;;19.50;99.90;;;;;;10502323;28;20287;-83
2021/09/11 20:23:40;;;;;;;6.53;6.03;;;19.50;99.90;;;;;;10502175;28;20255;-84
2021/09/11 20:28:44;;;;;;;7.00;6.43;;;19.50;99.90;;;;;;10466468;28;20212;-83
2021/09/11 20:33:46;;;;;;;5.83;5.40;;;19.40;99.90;;;;;;10467332;28;20766;-83
2021/09/11 20:38:48;;;;;;;7.53;6.03;;;19.40;99.90;;;;;;10484115;28;20653;-83
2021/09/11 20:43:51;;;;;;;6.10;5.70;;;19.30;99.90;;;;;;10483561;28;20225;-84
2021/09/11 20:48:54;;;;;;;5.87;5.33;;;19.30;99.90;;;;;;10483929;28;20189;-83
2021/09/11 20:53:56;;;;;;;6.40;5.90;;;19.20;99.90;;;;;;10466327;28;20256;-84
2021/09/11 20:58:59;;;;;;;7.33;6.73;;;19.20;99.90;;;;;;10483715;28;20197;-84
2021/09/11 21:04:05;;;;;;;6.17;5.70;;;19.20;99.90;;;;;;10466030;28;20693;-83
2021/09/11 21:09:07;;;;;;;7.43;6.80;;;19.10;99.90;;;;;;10500955;28;20199;-83
2021/09/11 21:14:11;;;;;;;5.00;4.70;;;19.00;99.90;;;;;;10466420;28;20349;-84
2021/09/11 21:19:13;;;;;;;5.53;5.23;;;19.00;99.90;;;;;;10466669;28;20200;-83
2021/09/11 21:24:15;;;;;;;7.70;5.63;;;19.00;99.90;;;;;;10482587;28;20601;-85
2021/09/11 21:29:19;;;;;;;5.83;5.30;;;19.00;99.90;;;;;;10501915;28;20209;-83
2021/09/11 21:34:22;;;;;;;5.73;5.33;;;19.00;99.90;;;;;;10464356;28;20236;-83
2021/09/11 21:39:24;;;;;;;5.70;5.30;;;18.90;99.90;;;;;;10499908;28;20203;-83
2021/09/11 21:44:28;;;;;;;8.70;5.77;;;18.90;99.90;;;;;;10482197;28;20247;-84
2021/09/11 21:49:30;;;;;;;5.70;5.30;;;18.90;99.90;;;;;;10465113;28;20247;-83
2021/09/11 21:54:32;;;;;;;5.27;4.87;;;18.90;99.90;;;;;;10481694;28;20235;-84
2021/09/11 21:59:36;;;;;;;5.37;4.90;;;18.80;99.90;;;;;;10499919;28;20201;-84
2021/09/11 22:04:38;;;;;;;6.27;5.43;;;18.80;99.90;;;;;;10480195;28;20212;-83
2021/09/11 22:09:40;;;;;;;5.47;5.07;;;18.80;99.90;;;;;;10481648;28;20563;-83
2021/09/11 22:14:44;;;;;;;6.40;5.87;;;18.80;99.90;;;;;;10498589;28;20722;-84
2021/09/11 22:19:46;;;;;;;5.27;4.97;;;18.70;99.90;;;;;;10481369;28;20193;-83
2021/09/11 22:24:48;;;;;;;5.83;5.00;;;18.70;99.90;;;;;;10465398;28;20267;-84
2021/09/11 22:29:51;;;;;;;5.23;4.83;;;18.70;99.90;;;;;;10498316;28;20192;-85
2021/09/11 22:34:54;;;;;;;5.20;4.73;;;18.60;99.90;;;;;;10462117;28;20671;-84
2021/09/11 22:39:56;;;;;;;5.73;4.53;;;18.60;99.90;;;;;;10462659;28;20228;-84
2021/09/11 22:45:00;;;;;;;4.73;4.33;;;18.50;99.90;;;;;;10478593;28;20254;-83
2021/09/11 22:50:02;;;;;;;5.70;5.30;;;18.50;99.90;;;;;;10478670;28;20682;-84
2021/09/11 22:55:06;;;;;;;5.30;4.80;;;18.50;99.90;;;;;;10477725;28;20585;-85
2021/09/11 23:00:12;;;;;;;4.87;4.57;;;18.40;99.90;;;;;;10478561;28;20188;-83
2021/09/11 23:05:14;;;;;;;5.30;4.90;;;18.40;99.90;;;;;;10461004;28;20212;-83
2021/09/11 23:10:17;;;;;;;7.43;4.80;;;18.40;99.90;;;;;;10461345;28;20632;-84
2021/09/11 23:15:22;;;;;;;5.70;5.20;;;18.30;99.90;;;;;;10461657;28;20703;-84
2021/09/11 23:20:24;;;;;;;6.60;5.17;;;18.30;99.90;;;;;;10496207;28;20196;-85
2021/09/11 23:25:29;;;;;;;5.77;5.27;;;18.30;99.90;;;;;;10474472;28;20207;-84
2021/09/11 23:30:35;;;;;;;4.90;4.60;;;18.20;99.90;;;;;;10470869;28;20196;-83
2021/09/11 23:35:37;;;;;;;5.10;4.73;;;18.20;99.90;;;;;;10466850;28;20216;-85
2021/09/11 23:40:39;;;;;;;4.50;4.10;;;18.20;99.90;;;;;;10442363;28;20569;-85
2021/09/11 23:45:43;;;;;;;4.97;4.43;;;18.10;99.90;;;;;;10451755;28;20208;-83
2021/09/11 23:50:45;;;;;;;5.17;4.77;;;18.20;99.90;;;;;;10459731;28;20633;-83
2021/09/11 23:55:47;;;;;;;5.10;4.60;;;18.10;99.90;;;;;;10447590;28;20217;-83
